createdAt,value
2019-05-02T00:00:05.953Z,5.59
2019-05-02T00:01:05.981Z,5.56
2019-05-02T00:02:05.930Z,5.56
2019-05-02T00:03:05.923Z,5.56
2019-05-02T00:04:05.911Z,5.57
2019-05-02T00:05:05.902Z,5.57
2019-05-02T00:06:07.370Z,5.56
2019-05-02T00:07:05.875Z,5.53
2019-05-02T00:08:05.859Z,5.51
2019-05-02T00:09:09.145Z,5.53
2019-05-02T00:10:06.843Z,5.53
2019-05-02T00:11:05.853Z,5.50
2019-05-02T00:12:05.832Z,5.50
2019-05-02T00:13:05.812Z,5.51
2019-05-02T00:14:05.798Z,5.48
2019-05-02T00:15:05.787Z,5.47
2019-05-02T00:16:09.136Z,5.47
2019-05-02T00:17:06.773Z,5.50
2019-05-02T00:18:05.751Z,5.53
2019-05-02T00:19:09.055Z,5.56
2019-05-02T00:20:06.728Z,5.56
2019-05-02T00:21:05.728Z,5.54
2019-05-02T00:22:05.759Z,5.51
2019-05-02T00:23:05.706Z,5.48
2019-05-02T00:24:05.700Z,5.44
2019-05-02T00:25:05.676Z,5.38
2019-05-02T00:26:05.678Z,5.33
2019-05-02T00:27:05.680Z,5.32
2019-05-02T00:28:07.823Z,5.29
2019-05-02T00:29:06.657Z,5.26
2019-05-02T00:30:05.636Z,5.23
2019-05-02T00:31:07.475Z,5.15
2019-05-02T00:32:06.627Z,5.15
2019-05-02T00:33:05.596Z,5.14
2019-05-02T00:34:05.619Z,5.07
2019-05-02T00:35:05.568Z,5.05
2019-05-02T00:36:05.568Z,5.05
2019-05-02T00:37:05.580Z,5.02
2019-05-02T00:38:05.547Z,5.02
2019-05-02T00:39:09.510Z,4.97
2019-05-02T00:40:06.515Z,4.89
2019-05-02T00:41:05.527Z,4.89
2019-05-02T00:42:12.429Z,4.92
2019-05-02T00:43:06.505Z,4.92
2019-05-02T00:44:06.092Z,4.92
2019-05-02T00:45:06.470Z,4.92
2019-05-02T00:46:05.462Z,4.82
2019-05-02T00:47:06.108Z,4.82
2019-05-02T00:48:06.447Z,4.78
2019-05-02T00:49:05.423Z,4.78
2019-05-02T00:50:06.188Z,4.78
2019-05-02T00:51:06.407Z,4.80
2019-05-02T00:52:05.397Z,4.84
2019-05-02T00:53:07.292Z,4.87
2019-05-02T00:54:06.392Z,4.90
2019-05-02T00:55:05.356Z,4.93
2019-05-02T00:56:09.169Z,4.92
2019-05-02T00:57:06.327Z,4.92
2019-05-02T00:58:05.357Z,4.92
2019-05-02T00:59:07.423Z,4.82
2019-05-02T01:00:05.307Z,4.80
2019-05-02T01:01:05.300Z,4.82
2019-05-02T01:02:07.086Z,4.78
2019-05-02T01:03:05.286Z,4.77
2019-05-02T01:04:05.265Z,4.77
2019-05-02T01:05:05.268Z,4.80
2019-05-02T01:06:05.248Z,4.82
2019-05-02T01:07:05.224Z,4.82
2019-05-02T01:08:05.224Z,4.86
2019-05-02T01:09:05.780Z,4.89
2019-05-02T01:10:06.202Z,4.86
2019-05-02T01:11:05.184Z,4.82
2019-05-02T01:12:08.282Z,4.82
2019-05-02T01:13:05.170Z,4.80
2019-05-02T01:14:05.151Z,4.78
2019-05-02T01:15:08.389Z,4.78
2019-05-02T01:16:05.144Z,4.78
2019-05-02T01:17:05.126Z,4.73
2019-05-02T01:18:06.127Z,4.74
2019-05-02T01:19:05.093Z,4.74
2019-05-02T01:20:05.095Z,4.82
2019-05-02T01:21:05.104Z,4.86
2019-05-02T01:22:05.098Z,4.87
2019-05-02T01:23:05.055Z,4.93
2019-05-02T01:24:05.055Z,4.93
2019-05-02T01:25:05.050Z,4.93
2019-05-02T01:26:05.034Z,4.97
2019-05-02T01:27:06.501Z,5.04
2019-05-02T01:28:05.011Z,5.10
2019-05-02T01:29:04.992Z,5.04
2019-05-02T01:30:06.080Z,4.96
2019-05-02T01:31:04.999Z,4.92
2019-05-02T01:32:04.972Z,4.89
2019-05-02T01:33:06.396Z,4.86
2019-05-02T01:34:04.940Z,4.77
2019-05-02T01:35:04.953Z,4.74
2019-05-02T01:36:06.393Z,4.71
2019-05-02T01:37:04.935Z,4.66
2019-05-02T01:38:04.909Z,4.66
2019-05-02T01:39:07.503Z,4.59
2019-05-02T01:40:04.881Z,4.55
2019-05-02T01:41:04.874Z,4.55
2019-05-02T01:42:05.442Z,4.62
2019-05-02T01:43:04.854Z,4.56
2019-05-02T01:44:04.850Z,4.50
2019-05-02T01:45:06.747Z,4.45
2019-05-02T01:46:05.819Z,4.41
2019-05-02T01:47:04.798Z,4.40
2019-05-02T01:48:04.954Z,4.38
2019-05-02T01:49:04.820Z,4.40
2019-05-02T01:50:04.767Z,4.41
2019-05-02T01:51:10.070Z,4.37
2019-05-02T01:52:05.763Z,4.37
2019-05-02T01:53:04.739Z,4.37
2019-05-02T01:54:05.097Z,4.40
2019-05-02T01:55:04.727Z,4.41
2019-05-02T01:56:04.715Z,4.42
2019-05-02T01:57:08.622Z,4.41
2019-05-02T01:58:05.682Z,4.41
2019-05-02T01:59:04.703Z,4.42
2019-05-02T02:00:09.377Z,4.41
2019-05-02T02:01:05.663Z,4.34
2019-05-02T02:02:04.648Z,4.34
2019-05-02T02:03:09.050Z,4.35
2019-05-02T02:04:05.637Z,4.37
2019-05-02T02:05:04.633Z,4.38
2019-05-02T02:06:08.120Z,4.37
2019-05-02T02:07:05.594Z,4.31
2019-05-02T02:08:04.571Z,4.31
2019-05-02T02:09:08.435Z,4.23
2019-05-02T02:10:05.577Z,4.20
2019-05-02T02:11:04.587Z,4.17
2019-05-02T02:12:04.914Z,4.19
2019-05-02T02:13:05.285Z,4.22
2019-05-02T02:14:07.429Z,4.22
2019-05-02T02:15:05.505Z,4.20
2019-05-02T02:16:05.847Z,4.24
2019-05-02T02:17:04.516Z,4.22
2019-05-02T02:18:04.475Z,4.23
2019-05-02T02:19:05.399Z,4.23
2019-05-02T02:20:04.458Z,4.26
2019-05-02T02:21:04.447Z,4.28
2019-05-02T02:22:04.487Z,4.30
2019-05-02T02:23:04.436Z,4.30
2019-05-02T02:24:04.404Z,4.26
2019-05-02T02:25:04.414Z,4.20
2019-05-02T02:26:06.808Z,4.14
2019-05-02T02:27:05.405Z,4.12
2019-05-02T02:28:04.366Z,4.08
2019-05-02T02:29:07.944Z,4.06
2019-05-02T02:30:04.347Z,4.02
2019-05-02T02:31:07.467Z,3.99
2019-05-02T02:32:04.337Z,4.01
2019-05-02T02:33:07.567Z,4.02
2019-05-02T02:34:04.301Z,4.06
2019-05-02T02:35:10.087Z,4.08
2019-05-02T02:36:05.281Z,4.14
2019-05-02T02:37:05.310Z,4.14
2019-05-02T02:38:05.284Z,4.14
2019-05-02T02:39:06.919Z,4.26
2019-05-02T02:40:05.244Z,4.32
2019-05-02T02:41:06.443Z,4.34
2019-05-02T02:42:05.225Z,4.40
2019-05-02T02:43:22.245Z,4.41
2019-05-02T02:44:05.216Z,4.45
2019-05-02T02:45:04.197Z,4.55
2019-05-02T02:46:04.185Z,4.66
2019-05-02T02:47:04.175Z,4.71
2019-05-02T02:48:04.145Z,4.74
2019-05-02T02:49:04.147Z,4.80
2019-05-02T02:50:05.339Z,4.84
2019-05-02T02:51:04.123Z,4.86
2019-05-02T02:52:05.025Z,4.84
2019-05-02T02:53:04.121Z,4.82
2019-05-02T02:54:05.861Z,4.82
2019-05-02T02:55:04.082Z,4.80
2019-05-02T02:56:04.262Z,4.75
2019-05-02T02:57:04.069Z,4.77
2019-05-02T02:58:04.698Z,4.75
2019-05-02T02:59:04.084Z,4.73
2019-05-02T03:00:07.788Z,4.70
2019-05-02T03:01:05.019Z,4.68
2019-05-02T03:02:10.073Z,4.62
2019-05-02T03:03:04.989Z,4.58
2019-05-02T03:04:09.642Z,4.56
2019-05-02T03:05:04.979Z,4.53
2019-05-02T03:06:05.631Z,4.49
2019-05-02T03:07:03.951Z,4.44
2019-05-02T03:08:05.404Z,4.34
2019-05-02T03:09:03.922Z,4.31
2019-05-02T03:10:06.031Z,4.28
2019-05-02T03:11:03.912Z,4.19
2019-05-02T03:12:04.580Z,4.14
2019-05-02T03:13:03.887Z,4.12
2019-05-02T03:14:07.405Z,4.08
2019-05-02T03:15:04.869Z,4.10
2019-05-02T03:16:07.068Z,4.12
2019-05-02T03:17:04.839Z,4.12
2019-05-02T03:18:03.834Z,4.08
2019-05-02T03:19:03.823Z,4.08
2019-05-02T03:20:04.021Z,4.05
2019-05-02T03:21:03.856Z,4.08
2019-05-02T03:22:04.187Z,4.12
2019-05-02T03:23:03.789Z,4.16
2019-05-02T03:24:05.814Z,4.22
2019-05-02T03:25:03.752Z,4.24
2019-05-02T03:26:07.847Z,4.28
2019-05-02T03:27:04.716Z,4.30
2019-05-02T03:28:03.751Z,4.31
2019-05-02T03:29:03.742Z,4.35
2019-05-02T03:30:03.690Z,4.37
2019-05-02T03:31:20.963Z,4.38
2019-05-02T03:32:14.401Z,4.41
2019-05-02T03:33:10.250Z,4.44
2019-05-02T03:34:04.703Z,4.48
2019-05-02T03:35:03.655Z,4.52
2019-05-02T03:36:03.635Z,4.58
2019-05-02T03:37:10.688Z,4.62
2019-05-02T03:38:04.608Z,4.68
2019-05-02T03:39:13.582Z,4.77
2019-05-02T03:40:04.606Z,4.82
2019-05-02T03:41:03.590Z,4.87
2019-05-02T03:42:04.976Z,4.93
2019-05-02T03:43:03.571Z,4.97
2019-05-02T03:44:11.370Z,5.02
2019-05-02T03:45:05.276Z,5.08
2019-05-02T03:46:03.535Z,5.21
2019-05-02T03:47:04.990Z,5.32
2019-05-02T03:48:03.539Z,5.41
2019-05-02T03:49:07.376Z,5.48
2019-05-02T03:50:08.343Z,5.53
2019-05-02T03:51:05.215Z,5.65
2019-05-02T03:52:05.901Z,5.71
2019-05-02T03:53:03.450Z,5.79
2019-05-02T03:54:07.785Z,5.84
2019-05-02T03:55:04.450Z,5.87
2019-05-02T03:56:10.604Z,5.90
2019-05-02T03:57:04.419Z,5.94
2019-05-02T03:58:12.860Z,5.99
2019-05-02T03:59:04.434Z,6.02
2019-05-02T04:00:03.391Z,6.04
2019-05-02T04:01:03.900Z,6.07
2019-05-02T04:02:03.393Z,6.08
2019-05-02T04:03:03.366Z,6.12
2019-05-02T04:04:03.343Z,6.16
2019-05-02T04:05:03.335Z,6.17
2019-05-02T04:06:03.322Z,6.22
2019-05-02T04:07:03.409Z,6.24
2019-05-02T04:08:05.385Z,6.24
2019-05-02T04:09:05.356Z,6.27
2019-05-02T04:10:04.689Z,6.28
2019-05-02T04:11:03.645Z,6.31
2019-05-02T04:12:03.588Z,6.33
2019-05-02T04:13:03.512Z,6.35
2019-05-02T04:14:14.885Z,6.36
2019-05-02T04:15:04.318Z,6.39
2019-05-02T04:16:14.535Z,6.39
2019-05-02T04:17:04.310Z,6.42
2019-05-02T04:18:08.386Z,6.42
2019-05-02T04:19:04.302Z,6.44
2019-05-02T04:20:09.783Z,6.44
2019-05-02T04:21:04.243Z,6.44
2019-05-02T04:22:08.425Z,6.44
2019-05-02T04:23:04.113Z,6.44
2019-05-02T04:24:12.999Z,6.44
2019-05-02T04:25:06.325Z,6.45
2019-05-02T04:26:06.804Z,6.45
2019-05-02T04:27:04.202Z,6.45
2019-05-02T04:28:05.959Z,6.46
2019-05-02T04:29:04.247Z,6.48
2019-05-02T04:30:11.618Z,6.51
2019-05-02T04:31:04.151Z,6.54
2019-05-02T04:32:10.817Z,6.56
2019-05-02T04:33:04.044Z,6.57
2019-05-02T04:34:14.198Z,6.60
2019-05-02T04:35:03.991Z,6.64
2019-05-02T04:36:14.033Z,6.66
2019-05-02T04:37:04.296Z,6.69
2019-05-02T04:38:09.986Z,6.72
2019-05-02T04:39:05.659Z,6.75
2019-05-02T04:40:07.918Z,6.77
2019-05-02T04:41:03.952Z,6.81
2019-05-02T04:42:13.021Z,6.84
2019-05-02T04:43:08.229Z,6.87
2019-05-02T04:44:04.247Z,6.93
2019-05-02T04:45:21.171Z,6.95
2019-05-02T04:46:09.454Z,6.96
2019-05-02T04:47:13.933Z,6.97
2019-05-02T04:48:04.239Z,6.99
2019-05-02T04:49:02.940Z,7.00
2019-05-02T04:50:08.006Z,7.02
2019-05-02T04:51:10.136Z,7.02
2019-05-02T04:52:10.374Z,7.05
2019-05-02T04:53:03.827Z,7.07
2019-05-02T04:54:02.792Z,7.07
2019-05-02T04:55:14.797Z,7.11
2019-05-02T04:56:06.845Z,7.11
2019-05-02T04:57:03.884Z,7.13
2019-05-02T04:58:03.153Z,7.15
2019-05-02T04:59:14.015Z,7.18
2019-05-02T05:00:08.474Z,7.21
2019-05-02T05:01:03.849Z,7.23
2019-05-02T05:02:02.841Z,7.25
2019-05-02T05:03:07.223Z,7.29
2019-05-02T05:04:03.870Z,7.31
2019-05-02T05:05:02.757Z,7.32
2019-05-02T05:06:10.048Z,7.32
2019-05-02T05:07:03.690Z,7.31
2019-05-02T05:08:02.694Z,7.31
2019-05-02T05:09:04.005Z,7.32
2019-05-02T05:10:03.769Z,7.33
2019-05-02T05:11:02.741Z,7.33
2019-05-02T05:12:02.840Z,7.33
2019-05-02T05:13:02.784Z,7.38
2019-05-02T05:14:02.633Z,7.43
2019-05-02T05:15:02.629Z,7.48
2019-05-02T05:16:02.989Z,7.50
2019-05-02T05:17:02.738Z,7.53
2019-05-02T05:18:04.440Z,7.56
2019-05-02T05:19:03.605Z,7.60
2019-05-02T05:20:10.452Z,7.66
2019-05-02T05:21:03.696Z,7.69
2019-05-02T05:22:04.949Z,7.73
2019-05-02T05:23:02.495Z,7.77
2019-05-02T05:24:02.465Z,7.80
2019-05-02T05:25:02.453Z,7.85
2019-05-02T05:26:04.707Z,7.90
2019-05-02T05:27:02.467Z,7.93
2019-05-02T05:28:05.901Z,7.93
2019-05-02T05:29:02.706Z,7.94
2019-05-02T05:30:09.422Z,7.95
2019-05-02T05:31:03.478Z,7.98
2019-05-02T05:32:05.705Z,7.98
2019-05-02T05:33:03.364Z,8.00
2019-05-02T05:34:02.495Z,8.03
2019-05-02T05:35:03.420Z,8.09
2019-05-02T05:36:03.507Z,8.16
2019-05-02T05:37:03.801Z,8.20
2019-05-02T05:38:03.441Z,8.24
2019-05-02T05:39:03.013Z,8.26
2019-05-02T05:40:03.568Z,8.24
2019-05-02T05:41:03.075Z,8.28
2019-05-02T05:42:03.336Z,8.33
2019-05-02T05:43:11.317Z,8.37
2019-05-02T05:44:03.269Z,8.41
2019-05-02T05:45:03.714Z,8.44
2019-05-02T05:46:10.628Z,8.45
2019-05-02T05:47:03.389Z,8.46
2019-05-02T05:48:02.235Z,8.48
2019-05-02T05:49:02.378Z,8.46
2019-05-02T05:50:02.294Z,8.44
2019-05-02T05:51:02.282Z,8.51
2019-05-02T05:52:03.762Z,8.53
2019-05-02T05:53:02.215Z,8.55
2019-05-02T05:54:03.159Z,8.52
2019-05-02T05:55:04.772Z,8.55
2019-05-02T05:56:02.594Z,8.56
2019-05-02T05:57:02.152Z,8.61
2019-05-02T05:58:12.407Z,8.64
2019-05-02T05:59:03.309Z,8.63
2019-05-02T06:00:03.956Z,8.63
2019-05-02T06:01:03.191Z,8.58
2019-05-02T06:02:05.409Z,8.58
2019-05-02T06:03:13.058Z,8.63
2019-05-02T06:04:03.133Z,8.70
2019-05-02T06:05:03.712Z,8.73
2019-05-02T06:06:02.107Z,8.76
2019-05-02T06:07:03.277Z,8.84
2019-05-02T06:08:01.981Z,8.85
2019-05-02T06:09:01.993Z,8.87
2019-05-02T06:10:02.224Z,8.88
2019-05-02T06:11:02.953Z,8.91
2019-05-02T06:12:01.938Z,8.94
2019-05-02T06:13:05.233Z,9.00
2019-05-02T06:14:02.910Z,9.03
2019-05-02T06:15:03.759Z,9.04
2019-05-02T06:16:03.220Z,9.08
2019-05-02T06:17:01.923Z,9.06
2019-05-02T06:18:04.814Z,9.06
2019-05-02T06:19:01.858Z,9.10
2019-05-02T06:20:01.847Z,9.14
2019-05-02T06:21:03.453Z,9.14
2019-05-02T06:22:02.883Z,9.22
2019-05-02T06:23:01.861Z,9.23
2019-05-02T06:24:01.809Z,9.21
2019-05-02T06:25:01.812Z,9.25
2019-05-02T06:26:07.910Z,9.31
2019-05-02T06:27:02.787Z,9.29
2019-05-02T06:28:05.184Z,9.36
2019-05-02T06:29:01.787Z,9.37
2019-05-02T06:30:01.750Z,9.40
2019-05-02T06:31:02.120Z,9.40
2019-05-02T06:32:02.710Z,9.46
2019-05-02T06:33:01.737Z,9.40
2019-05-02T06:34:02.088Z,9.46
2019-05-02T06:35:01.712Z,9.47
2019-05-02T06:36:02.507Z,9.47
2019-05-02T06:37:01.669Z,9.51
2019-05-02T06:38:01.668Z,9.54
2019-05-02T06:39:01.648Z,9.48
2019-05-02T06:40:03.054Z,9.54
2019-05-02T06:41:02.675Z,9.61
2019-05-02T06:42:01.629Z,9.65
2019-05-02T06:43:04.227Z,9.68
2019-05-02T06:44:02.599Z,9.72
2019-05-02T06:45:01.587Z,9.77
2019-05-02T06:46:14.902Z,9.80
2019-05-02T06:47:04.277Z,9.80
2019-05-02T06:48:01.556Z,9.76
2019-05-02T06:49:01.538Z,9.69
2019-05-02T06:50:02.773Z,9.68
2019-05-02T06:51:01.537Z,9.73
2019-05-02T06:52:01.534Z,9.74
2019-05-02T06:53:04.363Z,9.76
2019-05-02T06:54:02.472Z,9.77
2019-05-02T06:55:01.468Z,9.76
2019-05-02T06:56:01.469Z,9.69
2019-05-02T06:57:01.517Z,9.68
2019-05-02T06:58:02.890Z,9.73
2019-05-02T06:59:01.463Z,9.79
2019-05-02T07:00:01.418Z,9.80
2019-05-02T07:01:01.409Z,9.77
2019-05-02T07:02:01.401Z,9.76
2019-05-02T07:03:05.129Z,9.76
2019-05-02T07:04:04.261Z,9.82
2019-05-02T07:05:01.361Z,9.76
2019-05-02T07:06:02.742Z,9.80
2019-05-02T07:07:01.497Z,9.80
2019-05-02T07:08:01.356Z,9.77
2019-05-02T07:09:01.607Z,9.79
2019-05-02T07:10:01.302Z,9.80
2019-05-02T07:11:03.136Z,9.83
2019-05-02T07:12:01.676Z,9.92
2019-05-02T07:13:09.946Z,9.98
2019-05-02T07:14:12.973Z,9.95
2019-05-02T07:15:03.861Z,9.92
2019-05-02T07:16:01.236Z,9.89
2019-05-02T07:17:01.235Z,9.86
2019-05-02T07:18:05.440Z,9.83
2019-05-02T07:19:02.203Z,9.89
2019-05-02T07:20:04.102Z,9.83
2019-05-02T07:21:01.196Z,9.82
2019-05-02T07:22:04.192Z,9.83
2019-05-02T07:23:01.217Z,9.84
2019-05-02T07:24:01.195Z,9.82
2019-05-02T07:25:01.931Z,9.82
2019-05-02T07:26:02.134Z,9.80
2019-05-02T07:27:02.542Z,9.79
2019-05-02T07:28:04.655Z,9.80
2019-05-02T07:29:02.123Z,9.79
2019-05-02T07:30:01.123Z,9.80
2019-05-02T07:31:01.110Z,9.77
2019-05-02T07:32:01.111Z,9.73
2019-05-02T07:33:02.309Z,9.76
2019-05-02T07:34:01.094Z,9.76
2019-05-02T07:35:01.038Z,9.82
2019-05-02T07:36:01.461Z,9.86
2019-05-02T07:37:01.008Z,9.92
2019-05-02T07:38:01.017Z,9.97
2019-05-02T07:39:05.232Z,9.97
2019-05-02T07:40:01.991Z,9.99
2019-05-02T07:41:01.016Z,9.98
2019-05-02T07:42:05.971Z,10.04
2019-05-02T07:43:01.942Z,10.12
2019-05-02T07:44:00.953Z,10.12
2019-05-02T07:45:04.417Z,10.16
2019-05-02T07:46:01.922Z,10.17
2019-05-02T07:47:02.448Z,10.22
2019-05-02T07:48:01.540Z,10.28
2019-05-02T07:49:00.916Z,10.28
2019-05-02T07:50:05.397Z,10.10
2019-05-02T07:51:01.860Z,10.09
2019-05-02T07:52:00.866Z,10.10
2019-05-02T07:53:04.427Z,10.12
2019-05-02T07:54:01.875Z,10.16
2019-05-02T07:55:01.165Z,10.19
2019-05-02T07:56:00.793Z,10.17
2019-05-02T07:57:02.382Z,10.16
2019-05-02T07:58:02.014Z,10.20
2019-05-02T07:59:01.797Z,10.28
2019-05-02T08:00:02.603Z,10.30
2019-05-02T08:01:00.773Z,10.35
2019-05-02T08:02:00.745Z,10.40
2019-05-02T08:03:00.735Z,10.42
2019-05-02T08:04:04.459Z,10.51
2019-05-02T08:05:00.732Z,10.57
2019-05-02T08:06:00.720Z,10.67
2019-05-02T08:07:00.703Z,10.67
2019-05-02T08:08:00.682Z,10.75
2019-05-02T08:09:01.625Z,10.78
2019-05-02T08:10:01.683Z,10.89
2019-05-02T08:11:02.884Z,10.99
2019-05-02T08:12:00.613Z,11.00
2019-05-02T08:13:00.643Z,10.99
2019-05-02T08:14:00.686Z,11.00
2019-05-02T08:15:00.614Z,10.92
2019-05-02T08:16:00.602Z,10.89
2019-05-02T08:17:05.846Z,10.96
2019-05-02T08:18:01.652Z,10.99
2019-05-02T08:19:04.966Z,11.05
2019-05-02T08:20:00.560Z,11.00
2019-05-02T08:21:00.532Z,10.92
2019-05-02T08:22:04.713Z,10.94
2019-05-02T08:23:01.511Z,10.92
2019-05-02T08:24:02.179Z,10.94
2019-05-02T08:25:00.497Z,10.99
2019-05-02T08:26:00.500Z,10.99
2019-05-02T08:27:00.470Z,10.92
2019-05-02T08:28:00.482Z,10.99
2019-05-02T08:29:00.435Z,11.10
2019-05-02T08:30:04.309Z,11.12
2019-05-02T08:31:01.440Z,11.27
2019-05-02T08:32:00.404Z,11.32
2019-05-02T08:33:00.404Z,11.43
2019-05-02T08:34:00.428Z,11.63
2019-05-02T08:35:00.381Z,11.69
2019-05-02T08:36:00.363Z,11.84
2019-05-02T08:37:03.388Z,11.78
2019-05-02T08:38:00.352Z,11.72
2019-05-02T08:39:00.331Z,11.62
2019-05-02T08:40:00.329Z,11.66
2019-05-02T08:41:00.317Z,11.69
2019-05-02T08:42:00.305Z,11.70
2019-05-02T08:43:03.695Z,11.78
2019-05-02T08:44:01.262Z,11.81
2019-05-02T08:45:00.988Z,11.87
2019-05-02T08:46:00.296Z,11.86
2019-05-02T08:47:00.249Z,11.91
2019-05-02T08:48:04.844Z,11.91
2019-05-02T08:49:01.240Z,12.07
2019-05-02T08:50:00.221Z,12.09
2019-05-02T08:51:00.202Z,12.02
2019-05-02T08:52:00.213Z,12.03
2019-05-02T08:53:00.220Z,12.00
2019-05-02T08:54:00.193Z,11.86
2019-05-02T08:55:04.357Z,11.77
2019-05-02T08:56:01.142Z,11.77
2019-05-02T08:57:00.647Z,11.86
2019-05-02T08:58:00.141Z,11.95
2019-05-02T08:59:00.113Z,11.99
2019-05-02T09:00:01.370Z,11.90
2019-05-02T09:01:00.103Z,11.94
2019-05-02T09:02:00.082Z,12.00
2019-05-02T09:03:02.590Z,11.90
2019-05-02T09:04:00.062Z,11.88
2019-05-02T09:05:04.667Z,12.03
2019-05-02T09:06:05.890Z,12.07
2019-05-02T09:07:01.057Z,12.17
2019-05-02T09:08:00.051Z,12.29
2019-05-02T09:09:00.023Z,12.32
2019-05-02T09:10:00.163Z,12.42
2019-05-02T09:11:01.070Z,12.45
2019-05-02T09:12:11.395Z,12.67
2019-05-02T09:13:02.675Z,12.95
2019-05-02T09:14:01.945Z,12.90
2019-05-02T09:14:59.922Z,12.68
2019-05-02T09:16:02.781Z,12.67
2019-05-02T09:17:08.618Z,12.90
2019-05-02T09:18:02.685Z,13.03
2019-05-02T09:18:59.889Z,13.44
2019-05-02T09:20:04.969Z,14.12
2019-05-02T09:21:02.071Z,14.08
2019-05-02T09:21:59.914Z,14.26
2019-05-02T09:23:01.617Z,14.22
2019-05-02T09:23:59.832Z,14.17
2019-05-02T09:25:02.107Z,14.14
2019-05-02T09:25:59.814Z,13.81
2019-05-02T09:26:59.823Z,13.83
2019-05-02T09:28:01.735Z,14.25
2019-05-02T09:29:01.710Z,14.55
2019-05-02T09:30:02.739Z,14.30
2019-05-02T09:31:05.025Z,14.15
2019-05-02T09:32:02.132Z,13.92
2019-05-02T09:33:02.843Z,13.86
2019-05-02T09:34:02.548Z,14.03
2019-05-02T09:35:02.351Z,13.85
2019-05-02T09:36:02.378Z,14.97
2019-05-02T09:36:59.750Z,15.54
2019-05-02T09:38:01.638Z,14.89
2019-05-02T09:38:59.710Z,14.77
2019-05-02T09:40:02.047Z,15.17
2019-05-02T09:41:13.822Z,15.58
2019-05-02T09:42:02.174Z,15.10
2019-05-02T09:43:02.201Z,14.05
2019-05-02T09:43:59.636Z,13.54
2019-05-02T09:44:59.618Z,13.89
2019-05-02T09:45:59.605Z,15.04
2019-05-02T09:46:59.574Z,15.15
2019-05-02T09:48:05.182Z,14.77
2019-05-02T09:49:02.881Z,14.88
2019-05-02T09:49:59.605Z,14.79
2019-05-02T09:51:04.527Z,14.70
2019-05-02T09:52:01.280Z,15.09
2019-05-02T09:53:01.700Z,15.64
2019-05-02T09:54:04.698Z,15.90
2019-05-02T09:55:02.751Z,15.59
2019-05-02T09:55:59.492Z,15.28
2019-05-02T09:56:59.474Z,14.82
2019-05-02T09:57:59.499Z,15.54
2019-05-02T09:59:04.825Z,15.91
2019-05-02T10:00:02.156Z,16.00
2019-05-02T10:00:59.440Z,15.22
2019-05-02T10:01:59.432Z,14.85
2019-05-02T10:02:59.415Z,15.46
2019-05-02T10:03:59.487Z,16.12
2019-05-02T10:04:59.432Z,16.38
2019-05-02T10:05:59.393Z,16.02
2019-05-02T10:06:59.453Z,15.44
2019-05-02T10:08:03.120Z,14.94
2019-05-02T10:09:02.631Z,14.70
2019-05-02T10:10:03.115Z,14.47
2019-05-02T10:11:02.619Z,14.91
2019-05-02T10:11:59.348Z,15.97
2019-05-02T10:12:59.311Z,16.26
2019-05-02T10:13:59.303Z,16.65
2019-05-02T10:14:59.327Z,16.91
2019-05-02T10:15:59.274Z,16.69
2019-05-02T10:17:05.133Z,16.38
2019-05-02T10:18:08.686Z,15.65
2019-05-02T10:19:00.498Z,15.31
2019-05-02T10:20:02.029Z,14.97
2019-05-02T10:20:59.232Z,14.65
2019-05-02T10:21:59.203Z,14.63
2019-05-02T10:22:59.191Z,15.04
2019-05-02T10:24:00.864Z,14.69
2019-05-02T10:24:59.186Z,14.30
2019-05-02T10:25:59.183Z,13.95
2019-05-02T10:27:04.297Z,13.95
2019-05-02T10:28:02.142Z,13.81
2019-05-02T10:28:59.135Z,13.75
2019-05-02T10:30:08.207Z,14.20
2019-05-02T10:31:02.086Z,14.44
2019-05-02T10:31:59.111Z,14.32
2019-05-02T10:32:59.119Z,14.20
2019-05-02T10:33:59.061Z,14.00
2019-05-02T10:34:59.076Z,13.83
2019-05-02T10:35:59.105Z,13.81
2019-05-02T10:37:00.401Z,13.86
2019-05-02T10:37:59.055Z,14.00
2019-05-02T10:38:59.399Z,14.35
2019-05-02T10:39:59.012Z,14.47
2019-05-02T10:41:01.823Z,14.51
2019-05-02T10:42:01.993Z,14.41
2019-05-02T10:42:58.975Z,14.08
2019-05-02T10:43:59.621Z,14.54
2019-05-02T10:44:58.988Z,15.09
2019-05-02T10:45:58.934Z,15.62
2019-05-02T10:46:58.994Z,15.86
2019-05-02T10:47:58.926Z,15.82
2019-05-02T10:48:58.914Z,15.98
2019-05-02T10:49:58.904Z,16.42
2019-05-02T10:50:58.876Z,16.20
2019-05-02T10:51:58.899Z,16.15
2019-05-02T10:53:03.492Z,16.15
2019-05-02T10:53:59.855Z,16.42
2019-05-02T10:54:58.855Z,16.58
2019-05-02T10:55:58.841Z,16.64
2019-05-02T10:56:58.843Z,16.64
2019-05-02T10:57:58.842Z,16.89
2019-05-02T10:58:58.807Z,16.66
2019-05-02T10:59:58.808Z,16.42
2019-05-02T11:00:58.786Z,16.47
2019-05-02T11:01:58.773Z,16.53
2019-05-02T11:02:58.775Z,16.43
2019-05-02T11:03:58.733Z,16.15
2019-05-02T11:04:58.741Z,15.95
2019-05-02T11:06:05.640Z,15.82
2019-05-02T11:06:59.717Z,16.49
2019-05-02T11:08:04.715Z,17.11
2019-05-02T11:08:59.697Z,17.56
2019-05-02T11:10:03.145Z,17.97
2019-05-02T11:10:59.657Z,18.25
2019-05-02T11:11:58.658Z,18.31
2019-05-02T11:12:58.665Z,18.44
2019-05-02T11:14:01.045Z,18.18
2019-05-02T11:14:59.634Z,17.59
2019-05-02T11:15:58.604Z,16.81
2019-05-02T11:16:58.609Z,16.26
2019-05-02T11:17:58.616Z,16.50
2019-05-02T11:18:58.599Z,17.65
2019-05-02T11:19:58.570Z,18.52
2019-05-02T11:20:58.962Z,18.90
2019-05-02T11:21:59.246Z,19.22
2019-05-02T11:22:58.563Z,19.62
2019-05-02T11:23:58.664Z,19.55
2019-05-02T11:24:58.565Z,19.39
2019-05-02T11:25:58.507Z,19.19
2019-05-02T11:26:58.497Z,19.31
2019-05-02T11:28:05.451Z,19.18
2019-05-02T11:28:59.497Z,19.24
2019-05-02T11:29:58.468Z,19.49
2019-05-02T11:31:02.602Z,19.67
2019-05-02T11:31:59.443Z,19.92
2019-05-02T11:32:58.447Z,19.91
2019-05-02T11:33:58.456Z,20.11
2019-05-02T11:34:58.452Z,20.18
2019-05-02T11:35:58.428Z,20.03
2019-05-02T11:36:58.398Z,20.21
2019-05-02T11:37:58.378Z,20.62
2019-05-02T11:39:05.402Z,20.77
2019-05-02T11:40:01.357Z,20.97
2019-05-02T11:40:58.364Z,20.52
2019-05-02T11:41:58.386Z,20.22
2019-05-02T11:43:02.868Z,20.32
2019-05-02T11:43:59.330Z,20.07
2019-05-02T11:44:58.307Z,19.94
2019-05-02T11:46:05.588Z,19.76
2019-05-02T11:46:59.279Z,20.13
2019-05-02T11:48:02.037Z,20.78
2019-05-02T11:48:59.274Z,20.90
2019-05-02T11:49:58.239Z,20.80
2019-05-02T11:50:58.248Z,20.32
2019-05-02T11:51:58.232Z,20.51
2019-05-02T11:52:58.256Z,20.51
2019-05-02T11:53:59.304Z,19.84
2019-05-02T11:54:59.199Z,19.33
2019-05-02T11:56:02.394Z,18.96
2019-05-02T11:56:59.190Z,18.80
2019-05-02T11:58:02.414Z,18.89
2019-05-02T11:58:59.169Z,19.45
2019-05-02T11:59:59.476Z,19.55
2019-05-02T12:01:02.859Z,18.98
2019-05-02T12:02:00.097Z,18.16
2019-05-02T12:02:58.470Z,17.64
2019-05-02T12:03:58.125Z,17.86
2019-05-02T12:04:58.101Z,18.22
2019-05-02T12:05:58.094Z,18.11
2019-05-02T12:07:01.328Z,19.12
2019-05-02T12:08:02.595Z,19.62
2019-05-02T12:08:59.052Z,20.11
2019-05-02T12:09:58.063Z,20.37
2019-05-02T12:11:00.966Z,20.66
2019-05-02T12:11:58.053Z,19.74
2019-05-02T12:12:58.003Z,19.26
2019-05-02T12:13:58.052Z,18.73
2019-05-02T12:14:58.004Z,18.50
2019-05-02T12:15:57.997Z,18.56
2019-05-02T12:16:57.975Z,19.27
2019-05-02T12:17:57.996Z,20.16
2019-05-02T12:19:08.577Z,20.16
2019-05-02T12:19:58.928Z,19.81
2019-05-02T12:20:57.936Z,19.09
2019-05-02T12:21:57.905Z,18.84
2019-05-02T12:22:57.958Z,18.45
2019-05-02T12:23:57.914Z,18.10
2019-05-02T12:24:57.872Z,18.20
2019-05-02T12:25:57.875Z,18.35
2019-05-02T12:26:57.859Z,19.04
2019-05-02T12:27:57.874Z,19.30
2019-05-02T12:28:57.868Z,19.36
2019-05-02T12:29:59.290Z,19.11
2019-05-02T12:30:57.814Z,18.37
2019-05-02T12:31:57.806Z,18.45
2019-05-02T12:32:57.816Z,17.72
2019-05-02T12:33:57.783Z,17.06
2019-05-02T12:34:57.772Z,16.91
2019-05-02T12:35:57.768Z,18.07
2019-05-02T12:36:57.746Z,19.04
2019-05-02T12:37:57.776Z,19.54
2019-05-02T12:38:57.738Z,19.76
2019-05-02T12:39:57.718Z,19.92
2019-05-02T12:40:58.004Z,20.04
2019-05-02T12:41:57.910Z,20.25
2019-05-02T12:43:02.354Z,20.18
2019-05-02T12:43:57.669Z,20.58
2019-05-02T12:44:57.695Z,20.75
2019-05-02T12:45:57.659Z,20.62
2019-05-02T12:46:57.656Z,20.60
2019-05-02T12:47:57.639Z,21.20
2019-05-02T12:48:57.657Z,21.07
2019-05-02T12:49:57.613Z,21.06
2019-05-02T12:50:57.637Z,20.51
2019-05-02T12:51:57.633Z,20.65
2019-05-02T12:52:57.597Z,20.60
2019-05-02T12:53:57.603Z,20.40
2019-05-02T12:54:57.571Z,19.73
2019-05-02T12:55:57.559Z,19.92
2019-05-02T12:56:57.545Z,20.04
2019-05-02T12:57:57.557Z,20.18
2019-05-02T12:58:57.541Z,20.47
2019-05-02T12:59:57.569Z,20.52
2019-05-02T13:00:57.534Z,20.80
2019-05-02T13:01:57.505Z,20.72
2019-05-02T13:02:57.489Z,19.92
2019-05-02T13:03:57.516Z,19.48
2019-05-02T13:04:57.484Z,19.09
2019-05-02T13:05:57.499Z,18.68
2019-05-02T13:06:57.490Z,18.62